My Meet Scores
Sophia Friscia, Aspire Gymnastics Academy - MyMeetScores.com
Top100 | Top Teams | Upcoming Meets | Completed Meets | Latest | Add Scores | Help| Support | Bookmark and Share

Sophia Friscia, Aspire Gymnastics Academy
Personal Bests
LevelVault BarsBeamFloorAA
39.6759.800 9.4259.70037.950
49.2509.650 9.8759.50037.550
59.7509.450 9.6259.55038.025
Scores on America's Top 100as of 11.18.2019
Year Level Vault Bars Beam Floor AA
2018 49.875
2019 59.750

Click here to view our
exclusive Top 100 Collection

Click here to view our
exclusive Top 100 Collection
Meet Scores
Date Meet Team Session Level Division Vault Bars Beam Floor AA
2019-03-22 Illinois Gymnastics State Championships Aspire Gymnastics Academy 1 5 JR A 9.750 1 9.225 7 9.500 2T 9.550 3T 38.025 3
2019-03-08 Lucky Invite Aspire Gymnastics Academy A07 5 Jr A 9.300 2 9.425 3 9.425 1 9.300 1 37.450 1
2019-02-23 Kinetic Classic 2019 Aspire Gymnastics Academy 1 5 Younger 9.200 1T 9.175 5 9.300 8T 9.150 4 36.825 2
2019-02-15 Big ClassicBIG CLASSIC Aspire Gymnastics Academy 5B 5 Child A 9.425 2 9.250 3 9.350 4T 9.300 2 37.325 2
2019-01-25 UGA Invitational Aspire Gymnastics Academy B11 5 Jr A 9.475 1 9.350 4 9.300 5 9.500 1 37.625 2
2019-01-18 2019 Bravo Classic Aspire Gymnastics Academy 2A 5 Child 9.350 1 8.850 16 9.625 1 9.500 8T 37.325 3
2018-12-14 2018 Aspire Classic Aspire Gymnastics Academy 8A 5 Younger 9.525 1 9.450 2 8.950 16 9.400 1 37.325 2
2018-12-07 St. Nick Invite 2018 Aspire Gymnastics Academy 1 5 JrA 9.300 3 8.875 8 9.050 7T 9.375 1 36.600 2
2018-11-17 Paul Hamm Thanksgiving Class WOMENS Aspire Gymnastics Academy 5 5 Younger 9.200 5T 9.325 3 9.400 3 9.400 2T 37.325 1
2018-03-08 Level 4 & 5 State Aspire Gymnastics Academy All 4 Ch B 8.950 2T 8.750 11T 9.450 3 9.500 1T 36.650 1
2018-02-16 Big Classic Aspire Gymnastics Academy 2B 4 Child A 9.025 1 9.350 5 9.450 1 9.200 4T 37.025 1
2018-01-26 2018 UGA Classic Aspire Gymnastics Academy AA1 4 Jr A 9.150 2 9.300 2 9.875 1 9.225 4 37.550 1
2018-01-19 2018 Bravo Classic Aspire Gymnastics Academy 12B 4 Child 8.850 3T 9.075 5 9.725 1 9.500 2T 37.150 1
2017-12-15 2017 Aspire Classic Aspire Gymnastics Academy 3 4 Jr A 9.250 1 9.550 3 9.300 4T 9.250 2 37.350 2
2017-12-08 St. Nick Invite Aspire Gymnastics Academy 7A 4 JrA 9.175 3 9.300 4T 9.550 4 9.350 4T 37.375 4
2017-11-16 Paul Hamm Thanksgiving Classic - Women Aspire Gymnastics Academy 7 4 Younger 8.975 5 9.650 5T 9.450 5T 9.050 8T 37.125 5
2017-03-30 2017 Illinois Level 3 & 5 State Aspire Gymnastics Academy All 3 Ch C 9.650 4 9.650 1 9.325 5 9.250 9 37.875 1
2017-02-24 Kinetic Classic Aspire Gymnastics Academy 4,5,6,7 3 All Ages 9.425 8T 9.125 40T 9.425 11 9.700 2 37.675 7T
2017-02-18 2017 Great Western Invitational Women's Aspire Gymnastics Academy 2 3 Filly 9.150 10T 9.700 3 9.400 3T 9.550 5 37.800 4T
2017-01-27 2017 UGA Invitational Aspire Gymnastics Academy B7 3 Jr A 9.150 1T 9.500 2 9.400 2 9.575 2 37.625 2
2017-01-20 2017 Bravo Classic Aspire Gymnastics Academy 10B 3 6-7yrs 9.500 3 9.800 2 9.425 5 9.100 7T 37.825 4
2016-12-16 2016 Aspire Classic Aspire Gymnastics Academy 11 3 Younger 9.675 2T 9.450 3T 9.350 2 9.400 3T 37.875 2
2016-12-09 St. Nick Invite Aspire Gymnastics Academy 5 3 All 9.475 17T 9.525 5T 9.400 17T 9.550 4T 37.950 7
2016-11-19 Paul Hamm Thanksgiving Classic - 2016 Girls Aspire Gymnastics Academy 6 3 6-7 yrs 9.175 2 9.400 2 8.700 4 9.400 1 36.675 2
2016-03-04 2016 Illinois Level 3 State Championships Aspire Gymnastics Academy 3 Child-A 8.925 27 8.750 13 8.000 22 8.750 15 34.425 19
2016-02-13 Western Invite Aspire Gymnastics Academy 1 3 Filly 8.550 20T 9.150 4 7.900 17T 8.450 21 34.050 16
2016-01-15 2016 Bravo Classic Aspire Gymnastics Academy 15A 3 6-7yrs 8.550 26 8.850 13 7.900 23 8.675 13 33.975 20
2015-12-18 2015 Aspire Classic Aspire Gymnastics Academy 9 3 Younger 9.250 7T 8.150 13T 8.725 7 8.750 8 34.875 12
2015-12-11 St. Nick Invite Aspire Gymnastics Academy 1B 3 All 8.700 51T 7.600 51T 7.650 50T 8.250 39T 32.200 52
Get your scores on
a t-shirt, pin, or hoodie

www.lazysuits.com